Time;durP1;ratioP1;P1;durP2;ratioP2;P2;SDS_P1;SDS_P2;PMS_P1;PMS_P2;Temp;Humidity;BMP_temperature;BMP_pressure;BME280_temperature;BME280_humidity;BME280_pressure;Samples;Min_cycle;Max_cycle;Signal;HPM_P1;HPM_P2
2022/03/31 00:00:34;;;;;;;8.57;5.68;;;9.50;73.40;;;;;;5095691;28;20217;-63
2022/03/31 00:03:04;;;;;;;9.90;7.03;;;9.50;73.40;;;;;;5095618;28;20180;-64
2022/03/31 00:05:31;;;;;;;11.05;7.13;;;9.40;73.60;;;;;;5114106;28;20241;-63
2022/03/31 00:07:59;;;;;;;15.20;6.43;;;9.40;74.00;;;;;;5112035;28;20201;-63
2022/03/31 00:10:30;;;;;;;13.23;6.63;;;9.40;73.90;;;;;;5095946;28;20234;-63
2022/03/31 00:12:58;;;;;;;11.77;6.55;;;9.40;74.10;;;;;;5096574;28;20219;-63
2022/03/31 00:15:27;;;;;;;8.80;6.28;;;9.40;74.10;;;;;;5095369;28;20228;-63
2022/03/31 00:17:56;;;;;;;7.32;5.38;;;9.40;74.70;;;;;;5097388;28;20288;-63
2022/03/31 00:20:23;;;;;;;8.73;5.63;;;9.40;73.80;;;;;;5115974;28;20238;-64
2022/03/31 00:22:50;;;;;;;10.00;6.88;;;9.40;74.00;;;;;;5114523;28;20220;-63
2022/03/31 00:25:17;;;;;;;10.00;5.60;;;9.40;74.10;;;;;;5095481;28;20236;-63
2022/03/31 00:27:44;;;;;;;10.35;6.93;;;9.50;73.90;;;;;;5095478;28;20200;-64
2022/03/31 00:30:14;;;;;;;9.82;7.20;;;9.50;74.20;;;;;;5115306;28;20188;-63
2022/03/31 00:32:42;;;;;;;8.23;6.15;;;9.50;74.10;;;;;;5106858;28;20189;-63
2022/03/31 00:35:13;;;;;;;6.43;4.65;;;9.40;73.40;;;;;;5095390;28;20189;-64
2022/03/31 00:37:41;;;;;;;8.00;4.95;;;9.40;73.40;;;;;;5102546;28;20230;-64
2022/03/31 00:40:10;;;;;;;9.10;6.72;;;9.40;73.70;;;;;;5115772;28;20196;-64
2022/03/31 00:42:42;;;;;;;9.90;5.68;;;9.50;74.10;;;;;;5108723;28;20185;-64
2022/03/31 00:45:14;;;;;;;11.18;6.13;;;9.50;73.90;;;;;;5095335;28;20189;-63
2022/03/31 00:47:41;;;;;;;9.73;6.20;;;9.40;74.10;;;;;;5101369;28;20180;-63
2022/03/31 00:50:11;;;;;;;10.18;6.38;;;9.50;74.40;;;;;;5115512;28;20193;-63
2022/03/31 00:52:39;;;;;;;9.50;6.35;;;9.50;74.30;;;;;;5109416;28;20196;-64
2022/03/31 00:55:08;;;;;;;9.18;6.10;;;9.50;74.20;;;;;;5095047;28;20252;-63
2022/03/31 00:57:44;;;;;;;8.90;5.38;;;9.50;74.00;;;;;;5099016;28;20184;-63
2022/03/31 01:00:14;;;;;;;8.52;5.93;;;9.40;74.10;;;;;;5115331;28;20196;-64
2022/03/31 01:02:44;;;;;;;15.57;6.80;;;9.40;74.10;;;;;;5099859;28;20231;-64
2022/03/31 01:05:15;;;;;;;8.38;6.00;;;9.30;73.80;;;;;;5094706;28;20283;-64
2022/03/31 01:07:43;;;;;;;14.13;6.05;;;9.30;73.90;;;;;;5108650;28;20184;-64
2022/03/31 01:10:12;;;;;;;8.55;5.55;;;9.30;74.20;;;;;;5115096;28;20706;-64
2022/03/31 01:12:40;;;;;;;10.07;6.35;;;9.20;74.30;;;;;;5100875;28;20193;-63
2022/03/31 01:15:10;;;;;;;7.40;5.55;;;9.20;74.70;;;;;;5094538;28;20281;-63
2022/03/31 01:17:39;;;;;;;10.25;6.07;;;9.10;75.60;;;;;;5106019;28;20231;-64
2022/03/31 01:20:14;;;;;;;10.52;5.70;;;9.00;76.40;;;;;;5114827;28;20694;-65
2022/03/31 01:22:44;;;;;;;13.38;6.90;;;9.00;76.70;;;;;;5101622;28;20189;-63
2022/03/31 01:25:13;;;;;;;10.05;6.47;;;9.00;76.50;;;;;;5094414;28;20188;-63
2022/03/31 01:27:43;;;;;;;9.23;5.60;;;9.00;76.40;;;;;;5106496;28;20184;-64
2022/03/31 01:30:13;;;;;;;12.55;7.57;;;9.00;76.90;;;;;;5113913;28;20184;-64
2022/03/31 01:32:40;;;;;;;6.50;5.55;;;8.90;77.90;;;;;;5094457;28;20189;-63
2022/03/31 01:35:08;;;;;;;6.72;5.40;;;8.80;78.30;;;;;;5093993;28;20216;-64
2022/03/31 01:37:36;;;;;;;8.13;5.85;;;8.90;78.70;;;;;;5112226;28;20264;-63
2022/03/31 01:40:04;;;;;;;7.93;5.22;;;8.90;78.60;;;;;;5114631;28;20185;-64
2022/03/31 01:42:34;;;;;;;10.80;7.28;;;8.90;78.20;;;;;;5095288;28;20238;-64
2022/03/31 01:45:05;;;;;;;7.80;5.05;;;9.00;77.80;;;;;;5094089;28;20231;-63
2022/03/31 01:47:32;;;;;;;8.27;5.32;;;9.00;77.80;;;;;;5112573;28;20620;-63
2022/03/31 01:50:01;;;;;;;9.05;5.82;;;9.00;77.20;;;;;;5114446;27;20197;-64
2022/03/31 01:52:29;;;;;;;8.68;6.25;;;9.00;77.20;;;;;;5096374;28;20220;-63
2022/03/31 01:54:56;;;;;;;9.13;6.28;;;9.00;77.90;;;;;;5093893;28;20220;-64
2022/03/31 01:57:23;;;;;;;10.10;5.80;;;9.00;77.90;;;;;;5109425;28;20655;-64
2022/03/31 01:59:52;;;;;;;11.55;5.90;;;9.00;77.60;;;;;;5109659;28;20188;-63
2022/03/31 02:02:20;;;;;;;6.82;5.32;;;8.90;78.00;;;;;;5093564;28;20200;-63
2022/03/31 02:04:48;;;;;;;13.57;6.13;;;8.90;78.80;;;;;;5096357;28;20219;-63
2022/03/31 02:07:15;;;;;;;9.23;5.90;;;8.90;78.90;;;;;;5113991;28;20544;-64
2022/03/31 02:09:43;;;;;;;12.63;7.07;;;8.90;78.90;;;;;;5111685;28;20188;-63
2022/03/31 02:12:10;;;;;;;10.20;6.15;;;8.90;79.00;;;;;;5093670;28;20622;-63
2022/03/31 02:14:39;;;;;;;8.75;6.53;;;9.00;79.10;;;;;;5104842;28;20574;-63
2022/03/31 02:17:09;;;;;;;9.05;6.65;;;9.10;79.10;;;;;;5099672;28;20235;-63
2022/03/31 02:19:37;;;;;;;8.45;6.20;;;9.10;79.20;;;;;;5104029;28;20223;-63
2022/03/31 02:22:06;;;;;;;15.93;6.57;;;9.20;79.10;;;;;;5113896;28;20188;-63
2022/03/31 02:24:35;;;;;;;10.05;7.10;;;9.20;79.10;;;;;;5103195;28;20192;-64
2022/03/31 02:27:02;;;;;;;11.02;7.20;;;9.20;78.90;;;;;;5093100;28;20281;-64
2022/03/31 02:29:29;;;;;;;8.98;6.95;;;9.30;79.20;;;;;;5101551;28;20531;-63
2022/03/31 02:31:58;;;;;;;9.93;8.43;;;9.20;79.40;;;;;;5113359;28;20192;-63
2022/03/31 02:34:27;;;;;;;12.93;7.00;;;9.20;79.80;;;;;;5104955;28;20205;-63
2022/03/31 02:37:02;;;;;;;11.57;7.38;;;9.20;79.30;;;;;;5093077;28;20238;-63
2022/03/31 02:39:32;;;;;;;15.93;6.57;;;9.20;79.00;;;;;;5100346;28;20188;-63
2022/03/31 02:42:00;;;;;;;12.05;6.72;;;9.20;79.20;;;;;;5113427;28;20215;-63
2022/03/31 02:44:28;;;;;;;16.40;7.95;;;9.20;78.90;;;;;;5105815;28;20657;-63
2022/03/31 02:46:55;;;;;;;11.50;8.23;;;9.20;79.10;;;;;;5092632;28;20197;-63
2022/03/31 02:49:26;;;;;;;11.50;7.43;;;9.20;79.20;;;;;;5097844;28;20191;-63
2022/03/31 02:51:55;;;;;;;8.07;7.15;;;9.20;79.00;;;;;;5113164;28;20580;-63
2022/03/31 02:57:07;;;;;;;10.50;6.63;;;9.30;78.90;;;;;;5092579;28;20191;-63
2022/03/31 02:59:34;;;;;;;11.82;6.35;;;9.30;78.80;;;;;;5098147;28;20193;-63
2022/03/31 03:02:03;;;;;;;8.15;5.88;;;9.30;78.50;;;;;;5112988;28;20663;-63
2022/03/31 03:04:32;;;;;;;11.52;6.45;;;9.30;78.30;;;;;;5106810;28;20192;-63
2022/03/31 03:07:00;;;;;;;7.60;5.97;;;9.30;78.60;;;;;;5092498;28;20270;-63
2022/03/31 03:09:27;;;;;;;7.95;5.75;;;9.30;78.30;;;;;;5096192;28;20210;-63
2022/03/31 03:11:54;;;;;;;8.40;5.28;;;9.30;78.40;;;;;;5112546;28;20763;-63
2022/03/31 03:14:22;;;;;;;7.53;6.10;;;9.30;78.30;;;;;;5108928;28;20905;-63
2022/03/31 03:16:50;;;;;;;8.38;6.40;;;9.30;78.40;;;;;;5092242;28;20181;-63
2022/03/31 03:19:19;;;;;;;10.93;6.55;;;9.30;78.50;;;;;;5104333;28;20639;-63
2022/03/31 03:21:48;;;;;;;11.40;6.35;;;9.30;78.30;;;;;;5091816;28;20185;-64
2022/03/31 03:24:33;;;;;;;10.52;6.70;;;9.30;78.60;;;;;;5092200;28;20644;-64
2022/03/31 03:27:00;;;;;;;9.73;6.68;;;9.20;79.00;;;;;;5109114;28;20557;-63
2022/03/31 03:29:27;;;;;;;10.88;6.10;;;9.20;79.40;;;;;;5112409;28;20188;-66
2022/03/31 03:31:57;;;;;;;12.32;6.88;;;9.20;79.00;;;;;;5096461;28;20537;-63
2022/03/31 03:34:25;;;;;;;7.38;6.15;;;9.20;79.20;;;;;;5092073;28;20217;-63
2022/03/31 03:36:54;;;;;;;9.05;7.90;;;9.20;79.00;;;;;;5107692;28;20181;-63
2022/03/31 03:39:21;;;;;;;12.52;7.32;;;9.10;79.70;;;;;;5104963;28;20182;-63
2022/03/31 03:41:48;;;;;;;9.05;6.03;;;9.10;80.20;;;;;;5092108;28;20667;-66
2022/03/31 03:44:15;;;;;;;9.60;7.82;;;9.00;80.40;;;;;;5096778;28;20184;-64
2022/03/31 03:46:43;;;;;;;12.20;8.30;;;9.10;80.70;;;;;;5112450;28;20193;-63
2022/03/31 03:49:11;;;;;;;12.85;8.02;;;9.10;80.60;;;;;;5108300;28;20185;-63
2022/03/31 03:51:38;;;;;;;10.65;7.45;;;9.10;80.50;;;;;;5091856;28;20193;-64
2022/03/31 03:54:07;;;;;;;10.30;7.95;;;9.10;80.30;;;;;;5097935;28;20307;-63
2022/03/31 03:56:34;;;;;;;10.88;7.65;;;9.10;80.10;;;;;;5112453;28;20258;-63
2022/03/31 03:59:03;;;;;;;10.00;7.78;;;9.20;79.80;;;;;;5105788;28;20184;-63
2022/03/31 04:01:30;;;;;;;12.13;8.77;;;9.20;79.40;;;;;;5092302;28;20554;-63
2022/03/31 04:03:58;;;;;;;14.18;8.23;;;9.10;80.30;;;;;;5096991;28;20185;-63
2022/03/31 04:06:25;;;;;;;14.15;8.95;;;9.00;80.50;;;;;;5112362;28;20211;-63
2022/03/31 04:08:53;;;;;;;11.13;8.32;;;9.10;80.80;;;;;;5108062;28;20287;-63
2022/03/31 04:11:22;;;;;;;14.70;8.80;;;9.10;81.20;;;;;;5092113;28;20197;-64
2022/03/31 04:13:49;;;;;;;19.55;10.07;;;9.10;81.30;;;;;;5094319;28;20639;-63
2022/03/31 04:16:18;;;;;;;12.02;8.35;;;9.10;81.10;;;;;;5112254;28;20220;-64
2022/03/31 04:18:45;;;;;;;9.77;7.30;;;9.10;80.90;;;;;;5110183;28;20195;-63
2022/03/31 04:21:14;;;;;;;11.10;8.75;;;9.20;80.80;;;;;;5091661;28;20283;-64
2022/03/31 04:23:41;;;;;;;9.15;7.60;;;9.20;80.90;;;;;;5092455;28;20193;-63
2022/03/31 04:26:09;;;;;;;14.43;8.10;;;9.20;81.10;;;;;;5112139;28;20498;-63
2022/03/31 04:28:38;;;;;;;12.50;7.97;;;9.20;81.50;;;;;;5112545;28;20199;-63
2022/03/31 04:31:05;;;;;;;12.80;7.63;;;9.20;81.40;;;;;;5092204;28;20553;-64
2022/03/31 04:33:32;;;;;;;10.30;7.93;;;9.20;80.90;;;;;;5106965;28;20184;-63
2022/03/31 04:36:00;;;;;;;9.32;7.75;;;9.20;80.50;;;;;;5112275;28;20224;-63
2022/03/31 04:38:27;;;;;;;13.65;8.50;;;9.10;80.50;;;;;;5097925;28;20182;-64
2022/03/31 04:40:54;;;;;;;12.05;7.85;;;9.10;81.10;;;;;;5094606;28;20204;-64
2022/03/31 04:43:41;;;;;;;11.20;8.02;;;9.10;81.10;;;;;;5089958;28;20254;-63
2022/03/31 04:46:08;;;;;;;9.00;6.68;;;9.10;81.20;;;;;;5092178;28;20217;-63
2022/03/31 04:48:39;;;;;;;8.80;7.20;;;9.10;80.90;;;;;;5089751;28;20193;-63
2022/03/31 04:51:07;;;;;;;16.33;9.13;;;9.10;81.00;;;;;;5090302;28;20250;-66
2022/03/31 04:53:34;;;;;;;8.88;7.78;;;9.00;81.70;;;;;;5093673;28;20211;-64
2022/03/31 04:56:01;;;;;;;10.75;7.10;;;9.00;82.00;;;;;;5093400;28;20213;-63
2022/03/31 04:58:30;;;;;;;10.00;7.55;;;9.10;82.00;;;;;;5094096;28;20349;-63
2022/03/31 05:00:58;;;;;;;10.65;7.88;;;9.10;82.20;;;;;;5094647;28;20196;-63
2022/03/31 05:03:25;;;;;;;12.20;6.75;;;9.10;82.00;;;;;;5095136;28;20296;-64
2022/03/31 05:05:54;;;;;;;15.90;9.05;;;9.00;82.10;;;;;;5093070;28;20195;-63
2022/03/31 05:08:22;;;;;;;9.65;7.63;;;9.00;82.80;;;;;;5093734;28;20867;-63
2022/03/31 05:10:51;;;;;;;9.93;7.72;;;9.00;82.70;;;;;;5093106;28;20199;-64
2022/03/31 05:13:18;;;;;;;15.27;8.45;;;9.00;82.40;;;;;;5093416;28;20545;-63
2022/03/31 05:15:46;;;;;;;11.82;7.25;;;9.00;82.20;;;;;;5092870;28;20338;-63
2022/03/31 05:18:14;;;;;;;12.02;8.38;;;9.00;82.20;;;;;;5093158;28;20643;-63
2022/03/31 05:20:42;;;;;;;11.57;7.50;;;9.10;82.30;;;;;;5092573;28;20639;-65
2022/03/31 05:23:09;;;;;;;13.25;9.05;;;9.10;82.80;;;;;;5093383;28;20200;-63
2022/03/31 05:25:36;;;;;;;12.68;9.02;;;9.10;82.90;;;;;;5093470;28;20185;-63
2022/03/31 05:28:06;;;;;;;16.27;8.32;;;9.10;82.80;;;;;;5092730;28;20193;-64
2022/03/31 05:30:34;;;;;;;16.92;11.13;;;9.10;83.30;;;;;;5092795;28;20185;-63
2022/03/31 05:33:01;;;;;;;18.45;13.05;;;9.10;83.30;;;;;;5092792;28;20247;-63
2022/03/31 05:35:31;;;;;;;19.27;12.32;;;9.20;83.00;;;;;;5092594;28;20217;-63
2022/03/31 05:37:58;;;;;;;16.30;10.73;;;9.10;82.90;;;;;;5096348;28;20245;-64
2022/03/31 05:40:25;;;;;;;16.00;10.05;;;9.00;82.90;;;;;;5092869;28;20193;-63
2022/03/31 05:42:55;;;;;;;13.27;10.05;;;9.10;83.30;;;;;;5092826;28;20235;-63
2022/03/31 05:45:22;;;;;;;14.30;9.07;;;9.10;83.50;;;;;;5094558;28;20192;-64
2022/03/31 05:47:49;;;;;;;13.25;10.88;;;9.10;83.40;;;;;;5092903;28;20644;-63
2022/03/31 05:50:16;;;;;;;16.38;10.40;;;9.10;83.30;;;;;;5092668;28;20189;-63
2022/03/31 05:52:44;;;;;;;14.30;9.77;;;9.20;83.40;;;;;;5087051;28;20192;-63
2022/03/31 05:55:13;;;;;;;13.75;10.27;;;9.20;83.20;;;;;;5091584;28;20583;-63
2022/03/31 05:57:40;;;;;;;14.38;11.32;;;9.20;83.10;;;;;;5092103;28;20650;-64
2022/03/31 06:00:10;;;;;;;17.55;11.13;;;9.20;83.60;;;;;;5092442;28;20650;-63
2022/03/31 06:02:37;;;;;;;18.23;12.93;;;9.20;83.90;;;;;;5092113;28;20196;-65
2022/03/31 06:05:17;;;;;;;17.55;13.15;;;9.30;83.80;;;;;;5092246;28;20563;-63
2022/03/31 06:07:48;;;;;;;17.35;12.93;;;9.30;83.40;;;;;;5094041;28;20246;-64
2022/03/31 06:10:16;;;;;;;20.30;13.80;;;9.30;83.60;;;;;;5092054;28;20227;-63
2022/03/31 06:12:43;;;;;;;19.67;13.02;;;9.40;83.70;;;;;;5092112;28;21630;-64
2022/03/31 06:15:11;;;;;;;17.60;11.50;;;9.40;83.40;;;;;;5097355;28;20221;-63
2022/03/31 06:17:42;;;;;;;16.65;11.13;;;9.40;83.20;;;;;;5091580;28;20659;-63
2022/03/31 06:20:10;;;;;;;17.88;12.65;;;9.40;83.20;;;;;;5092754;28;20227;-63
2022/03/31 06:22:37;;;;;;;20.25;12.60;;;9.40;83.20;;;;;;5092566;28;20284;-64
2022/03/31 06:25:10;;;;;;;18.83;13.20;;;9.50;83.20;;;;;;5092176;28;20189;-65
2022/03/31 06:27:38;;;;;;;25.80;18.80;;;9.50;83.30;;;;;;5092749;28;20551;-64
2022/03/31 06:30:05;;;;;;;25.92;19.15;;;9.60;83.40;;;;;;5092670;28;20196;-64
2022/03/31 06:32:33;;;;;;;30.52;22.20;;;9.70;83.00;;;;;;5092197;28;20268;-64
2022/03/31 06:35:00;;;;;;;27.63;18.55;;;9.70;83.30;;;;;;5088316;28;20305;-64
2022/03/31 06:37:27;;;;;;;27.63;17.27;;;9.70;83.30;;;;;;5092449;28;20208;-63
2022/03/31 06:39:54;;;;;;;24.40;15.18;;;9.90;83.50;;;;;;5092505;28;20280;-63
2022/03/31 06:42:23;;;;;;;22.27;16.63;;;9.90;83.00;;;;;;5091882;28;20231;-64
2022/03/31 06:44:50;;;;;;;21.67;14.63;;;10.00;81.90;;;;;;5091916;28;20641;-63
2022/03/31 06:47:16;;;;;;;19.48;13.95;;;10.00;81.30;;;;;;5092362;28;20284;-63
2022/03/31 06:49:43;;;;;;;20.10;14.95;;;10.00;81.30;;;;;;5091770;28;20269;-64
2022/03/31 06:52:10;;;;;;;21.58;15.38;;;10.10;81.10;;;;;;5091627;28;20245;-64
2022/03/31 06:54:37;;;;;;;26.02;16.92;;;10.20;80.20;;;;;;5092133;28;20228;-65
2022/03/31 06:57:05;;;;;;;18.25;13.88;;;10.20;80.40;;;;;;5092176;28;20296;-63
2022/03/31 06:59:33;;;;;;;21.02;15.35;;;10.30;79.80;;;;;;5091715;28;20224;-64
2022/03/31 07:02:00;;;;;;;20.65;16.08;;;10.30;79.80;;;;;;5091916;28;20515;-63
2022/03/31 07:04:27;;;;;;;21.70;17.60;;;10.30;79.80;;;;;;5091438;28;20192;-63
2022/03/31 07:06:54;;;;;;;19.00;14.27;;;10.40;79.50;;;;;;5092005;28;20595;-63
2022/03/31 07:09:21;;;;;;;20.40;15.38;;;10.50;79.00;;;;;;5091864;28;20613;-65
2022/03/31 07:11:48;;;;;;;36.33;28.80;;;10.50;78.40;;;;;;5091719;28;20275;-63
2022/03/31 07:14:15;;;;;;;58.35;40.65;;;10.50;79.20;;;;;;5090441;28;20272;-63
2022/03/31 07:16:43;;;;;;;36.83;29.05;;;10.50;78.30;;;;;;5091778;28;20619;-64
2022/03/31 07:19:10;;;;;;;53.53;38.70;;;10.50;77.90;;;;;;5091383;28;20196;-64
2022/03/31 07:21:37;;;;;;;30.00;22.10;;;10.60;78.80;;;;;;5087407;28;20281;-64
2022/03/31 07:24:04;;;;;;;21.73;15.50;;;10.70;79.00;;;;;;5091470;28;20307;-63
2022/03/31 07:26:32;;;;;;;23.52;17.48;;;10.70;78.40;;;;;;5091441;28;20632;-63
2022/03/31 07:28:59;;;;;;;21.02;15.30;;;10.80;78.10;;;;;;5091140;28;20216;-64
2022/03/31 07:31:28;;;;;;;18.52;15.10;;;10.90;78.20;;;;;;5091550;28;20586;-64
2022/03/31 07:33:56;;;;;;;50.33;32.08;;;11.00;77.00;;;;;;5091262;28;20291;-63
2022/03/31 07:36:23;;;;;;;110.28;68.38;;;11.00;77.00;;;;;;5091249;28;20636;-63
2022/03/31 07:38:50;;;;;;;48.10;32.70;;;11.10;76.20;;;;;;5091210;28;20292;-64
2022/03/31 07:41:17;;;;;;;23.63;18.63;;;11.10;77.10;;;;;;5091166;28;20284;-64
2022/03/31 07:43:44;;;;;;;29.00;21.92;;;11.20;76.10;;;;;;5091289;28;20569;-63
2022/03/31 07:46:12;;;;;;;49.20;31.30;;;11.40;76.00;;;;;;5091416;28;20280;-64
2022/03/31 07:48:39;;;;;;;51.63;31.55;;;11.50;76.20;;;;;;5091032;28;20287;-63
2022/03/31 07:51:08;;;;;;;43.05;32.65;;;11.60;74.80;;;;;;5091440;28;20540;-64
2022/03/31 07:53:35;;;;;;;22.85;18.20;;;11.70;74.40;;;;;;5091218;28;20516;-64
2022/03/31 07:56:03;;;;;;;19.73;14.88;;;11.90;72.90;;;;;;5090909;28;20308;-65
2022/03/31 07:58:30;;;;;;;22.15;16.23;;;12.00;72.80;;;;;;5087153;28;20231;-64
2022/03/31 08:00:57;;;;;;;21.05;15.52;;;12.10;71.10;;;;;;5091182;28;20284;-64
2022/03/31 08:03:24;;;;;;;17.70;15.52;;;12.20;70.50;;;;;;5091087;28;20749;-64
2022/03/31 08:05:52;;;;;;;22.65;15.93;;;12.30;70.30;;;;;;5090560;28;20678;-64
2022/03/31 08:08:21;;;;;;;17.55;14.27;;;12.40;68.90;;;;;;5091264;28;20184;-63
2022/03/31 08:10:49;;;;;;;18.35;14.60;;;12.50;67.80;;;;;;5091248;28;20276;-64
2022/03/31 08:13:24;;;;;;;16.65;14.13;;;12.50;67.80;;;;;;5091115;28;20570;-65
2022/03/31 08:15:52;;;;;;;17.70;13.68;;;12.50;65.50;;;;;;5087490;28;20231;-64
2022/03/31 08:18:19;;;;;;;15.65;12.00;;;12.60;65.80;;;;;;5091049;28;20181;-64
2022/03/31 08:20:46;;;;;;;17.60;12.60;;;12.60;65.40;;;;;;5090658;28;20193;-65
2022/03/31 08:23:13;;;;;;;28.08;17.58;;;12.70;65.10;;;;;;5090860;28;20280;-64
2022/03/31 08:25:42;;;;;;;18.15;14.98;;;12.70;65.30;;;;;;5091325;28;20196;-64
2022/03/31 08:28:09;;;;;;;19.00;13.80;;;12.80;65.20;;;;;;5094667;28;20192;-64
2022/03/31 08:30:36;;;;;;;23.23;17.38;;;12.80;65.40;;;;;;5093924;28;20283;-66
2022/03/31 08:33:03;;;;;;;22.45;15.07;;;12.80;64.30;;;;;;5094880;28;20185;-64
2022/03/31 08:35:30;;;;;;;17.00;11.50;;;12.80;63.70;;;;;;5094646;28;20626;-64
2022/03/31 08:37:57;;;;;;;20.33;14.20;;;12.90;63.40;;;;;;5094817;28;20519;-64
2022/03/31 08:40:23;;;;;;;13.95;11.35;;;13.00;63.20;;;;;;5094271;28;20275;-64
2022/03/31 08:42:54;;;;;;;18.30;11.60;;;13.00;61.60;;;;;;5094333;28;20280;-64
2022/03/31 08:45:21;;;;;;;16.73;12.52;;;13.00;61.60;;;;;;5094649;28;20189;-64
2022/03/31 08:47:51;;;;;;;15.18;12.00;;;13.00;62.20;;;;;;5094382;28;20271;-64
2022/03/31 08:50:19;;;;;;;18.65;11.50;;;13.00;61.30;;;;;;5089881;28;20220;-64
2022/03/31 08:52:46;;;;;;;16.33;11.90;;;12.80;61.00;;;;;;5094484;28;20188;-63
2022/03/31 08:55:13;;;;;;;21.40;13.13;;;12.90;62.20;;;;;;5094570;28;20318;-64
2022/03/31 08:57:44;;;;;;;15.07;11.75;;;12.90;61.30;;;;;;5093915;28;20295;-64
2022/03/31 09:00:15;;;;;;;16.35;12.02;;;12.80;61.50;;;;;;5093957;28;20220;-64
2022/03/31 09:02:57;;;;;;;15.23;11.85;;;12.80;61.90;;;;;;5094450;28;20197;-65
2022/03/31 09:05:24;;;;;;;18.17;10.40;;;12.80;61.90;;;;;;5090778;28;20599;-64
2022/03/31 09:07:56;;;;;;;19.15;12.63;;;12.80;60.60;;;;;;5094205;28;20314;-64
2022/03/31 09:10:27;;;;;;;19.20;12.07;;;12.90;60.20;;;;;;5093667;28;20185;-64
2022/03/31 09:12:54;;;;;;;15.77;11.80;;;12.90;61.10;;;;;;5093927;28;20227;-64
2022/03/31 09:15:22;;;;;;;14.43;11.57;;;12.80;61.20;;;;;;5093721;28;20314;-64
2022/03/31 09:17:54;;;;;;;21.95;11.50;;;12.80;61.30;;;;;;5093966;28;20209;-64
2022/03/31 09:20:22;;;;;;;14.60;11.13;;;12.80;61.40;;;;;;5090325;28;20242;-64
2022/03/31 09:22:50;;;;;;;15.07;10.85;;;12.80;61.30;;;;;;5093882;28;20193;-64
2022/03/31 09:25:25;;;;;;;16.95;11.20;;;12.80;61.40;;;;;;5093796;28;20216;-64
2022/03/31 09:27:53;;;;;;;20.23;11.70;;;12.80;61.30;;;;;;5090383;28;20533;-63
2022/03/31 09:30:20;;;;;;;16.35;10.65;;;12.80;61.60;;;;;;5093647;28;20284;-63
2022/03/31 09:32:50;;;;;;;16.33;11.13;;;12.80;61.30;;;;;;5093467;28;20302;-64
2022/03/31 09:35:21;;;;;;;14.50;11.30;;;12.90;61.80;;;;;;5088995;28;20279;-64
2022/03/31 09:37:49;;;;;;;19.58;11.98;;;12.90;61.80;;;;;;5092434;28;20304;-63
2022/03/31 09:40:17;;;;;;;18.00;11.63;;;13.00;62.20;;;;;;5093482;28;20185;-64
2022/03/31 09:42:55;;;;;;;21.35;10.70;;;13.00;61.90;;;;;;5089326;28;20181;-65
2022/03/31 09:45:22;;;;;;;16.70;11.05;;;13.10;60.50;;;;;;5093382;28;20220;-64
2022/03/31 09:47:51;;;;;;;16.77;11.63;;;13.00;59.80;;;;;;5093205;28;20264;-64
2022/03/31 09:50:20;;;;;;;15.93;10.90;;;13.00;59.90;;;;;;5093204;28;20221;-64
2022/03/31 09:52:48;;;;;;;17.00;10.30;;;13.00;60.10;;;;;;5093149;28;20195;-63
2022/03/31 09:55:18;;;;;;;17.40;10.52;;;13.00;59.60;;;;;;5093139;28;20271;-66
2022/03/31 09:57:48;;;;;;;12.60;9.90;;;13.10;58.70;;;;;;5089243;28;20219;-64
2022/03/31 10:00:17;;;;;;;18.33;11.73;;;13.10;58.90;;;;;;5093147;28;20624;-63
2022/03/31 10:02:46;;;;;;;17.75;13.07;;;13.10;59.70;;;;;;5092959;28;20185;-65
2022/03/31 10:05:16;;;;;;;20.38;13.43;;;13.00;60.60;;;;;;5093033;28;20250;-64
2022/03/31 10:07:46;;;;;;;20.33;11.35;;;13.10;61.50;;;;;;5093001;28;20195;-64
2022/03/31 10:10:14;;;;;;;16.60;11.68;;;13.10;61.90;;;;;;5092600;28;20284;-64
2022/03/31 10:12:44;;;;;;;15.60;9.13;;;13.10;62.20;;;;;;5088348;28;20221;-64
2022/03/31 10:15:17;;;;;;;14.63;9.60;;;13.20;62.00;;;;;;5091485;28;20232;-69
2022/03/31 10:17:48;;;;;;;13.52;9.13;;;13.30;60.30;;;;;;5092335;28;20248;-65
2022/03/31 10:20:20;;;;;;;15.13;9.25;;;13.40;59.40;;;;;;5092617;28;20223;-64
2022/03/31 10:25:41;;;;;;;17.20;9.35;;;13.50;59.70;;;;;;5092933;28;20188;-64
2022/03/31 10:28:12;;;;;;;13.23;8.95;;;13.50;58.90;;;;;;5089292;28;20173;-64
2022/03/31 10:30:40;;;;;;;14.90;10.40;;;13.50;59.00;;;;;;5092062;28;20223;-64
2022/03/31 10:33:09;;;;;;;13.68;8.85;;;13.50;59.30;;;;;;5092211;28;20277;-64
2022/03/31 10:35:39;;;;;;;15.68;9.07;;;13.50;58.80;;;;;;5087712;28;20657;-64
2022/03/31 10:38:14;;;;;;;11.00;8.32;;;13.50;58.90;;;;;;5091605;28;20303;-64
2022/03/31 10:40:43;;;;;;;12.82;8.88;;;13.60;58.50;;;;;;5091770;28;20219;-65
2022/03/31 10:43:21;;;;;;;13.65;8.25;;;13.60;58.10;;;;;;5092028;28;20216;-64
2022/03/31 10:45:49;;;;;;;12.77;9.57;;;13.70;57.90;;;;;;5092293;28;20639;-64
2022/03/31 10:48:18;;;;;;;14.10;9.48;;;13.70;58.30;;;;;;5091237;28;20254;-64
2022/03/31 10:50:48;;;;;;;13.15;8.48;;;13.70;58.00;;;;;;5092092;28;20195;-64
2022/03/31 10:53:15;;;;;;;14.80;9.63;;;13.80;58.30;;;;;;5091883;28;20205;-65
2022/03/31 10:55:48;;;;;;;12.50;7.97;;;13.80;58.20;;;;;;5091322;28;20189;-66
2022/03/31 10:58:25;;;;;;;15.38;7.63;;;13.90;57.50;;;;;;5091675;28;20258;-64
2022/03/31 11:00:53;;;;;;;14.85;7.43;;;13.90;56.40;;;;;;5091867;28;20199;-66
2022/03/31 11:03:20;;;;;;;15.65;8.20;;;13.80;56.20;;;;;;5092063;28;20189;-64
2022/03/31 11:05:50;;;;;;;14.20;8.07;;;13.80;56.30;;;;;;5091693;28;20211;-65
2022/03/31 11:08:19;;;;;;;17.90;8.77;;;13.80;56.00;;;;;;5091529;28;20435;-64
2022/03/31 11:10:47;;;;;;;14.23;7.40;;;13.80;56.20;;;;;;5090946;28;20185;-64
2022/03/31 11:13:18;;;;;;;15.85;8.30;;;13.80;55.80;;;;;;5091738;28;20186;-64
2022/03/31 11:15:48;;;;;;;11.23;8.48;;;13.80;56.60;;;;;;5091156;28;20221;-64
2022/03/31 11:18:15;;;;;;;11.25;8.63;;;13.70;56.70;;;;;;5090661;28;20212;-65
2022/03/31 11:20:43;;;;;;;17.20;9.70;;;13.70;56.00;;;;;;5091494;28;20196;-64
2022/03/31 11:23:11;;;;;;;19.75;10.43;;;13.70;55.70;;;;;;5091516;28;20196;-64
2022/03/31 11:25:44;;;;;;;14.55;10.45;;;13.60;55.80;;;;;;5089966;28;20250;-65
2022/03/31 11:28:13;;;;;;;13.43;10.02;;;13.60;56.10;;;;;;5087249;28;20225;-64
2022/03/31 11:30:41;;;;;;;20.02;11.80;;;13.60;55.70;;;;;;5091316;28;20185;-64
2022/03/31 11:33:10;;;;;;;21.88;10.52;;;13.60;55.90;;;;;;5090740;28;20189;-65
2022/03/31 11:35:38;;;;;;;17.13;10.57;;;13.60;56.10;;;;;;5087411;28;20187;-64
2022/03/31 11:38:11;;;;;;;19.33;10.35;;;13.60;56.60;;;;;;5091270;28;20260;-64
2022/03/31 11:40:42;;;;;;;17.45;10.50;;;13.50;57.20;;;;;;5090059;28;20246;-66
2022/03/31 11:43:11;;;;;;;18.20;10.35;;;13.50;56.50;;;;;;5087566;28;20220;-64
2022/03/31 11:45:43;;;;;;;14.90;9.32;;;13.50;55.90;;;;;;5091192;28;20584;-64
2022/03/31 11:48:12;;;;;;;19.38;9.70;;;13.50;55.50;;;;;;5090470;28;20184;-64
2022/03/31 11:50:49;;;;;;;16.23;8.82;;;13.40;56.40;;;;;;5091284;28;20204;-64
2022/03/31 11:53:18;;;;;;;16.63;9.43;;;13.40;56.40;;;;;;5091321;28;20212;-65
2022/03/31 11:55:57;;;;;;;19.50;9.20;;;13.40;56.80;;;;;;5087095;28;20220;-63
2022/03/31 11:58:24;;;;;;;17.83;8.90;;;13.40;57.30;;;;;;5091239;28;20248;-64
2022/03/31 12:00:52;;;;;;;18.42;9.35;;;13.40;56.20;;;;;;5092026;28;20185;-64
2022/03/31 12:03:19;;;;;;;13.27;9.40;;;13.40;56.90;;;;;;5095505;28;20193;-63
2022/03/31 12:05:57;;;;;;;17.08;8.70;;;13.30;57.80;;;;;;5095140;28;20181;-64
2022/03/31 12:08:25;;;;;;;11.77;8.60;;;13.30;57.90;;;;;;5095329;28;20568;-63
2022/03/31 12:10:52;;;;;;;15.05;9.52;;;13.30;57.60;;;;;;5094838;28;20619;-64
2022/03/31 12:13:23;;;;;;;21.10;10.57;;;13.30;58.00;;;;;;5095250;28;20193;-64
2022/03/31 12:15:50;;;;;;;15.50;10.52;;;13.40;58.60;;;;;;5094598;28;20556;-64
2022/03/31 12:18:19;;;;;;;16.02;11.15;;;13.30;58.00;;;;;;5094635;28;20549;-64
2022/03/31 12:20:48;;;;;;;17.63;9.85;;;13.20;58.60;;;;;;5094684;28;20607;-64
2022/03/31 12:23:20;;;;;;;20.08;10.07;;;13.20;57.40;;;;;;5094693;28;20580;-64
2022/03/31 12:25:47;;;;;;;13.70;10.20;;;13.10;57.20;;;;;;5094909;28;20193;-64
2022/03/31 12:28:14;;;;;;;15.68;10.38;;;13.00;57.40;;;;;;5094808;28;20197;-64
2022/03/31 12:30:47;;;;;;;19.13;10.88;;;13.00;58.60;;;;;;5094900;28;20321;-66
2022/03/31 12:33:18;;;;;;;15.27;10.93;;;12.90;59.40;;;;;;5091185;28;20204;-64
2022/03/31 12:35:52;;;;;;;19.17;11.25;;;12.90;60.20;;;;;;5094781;28;20565;-63
2022/03/31 12:38:20;;;;;;;19.33;9.35;;;12.90;59.80;;;;;;5094575;28;20248;-64
2022/03/31 12:40:46;;;;;;;13.63;10.68;;;12.90;60.50;;;;;;5094783;28;20188;-64
2022/03/31 12:43:25;;;;;;;17.20;10.63;;;12.90;61.00;;;;;;5094502;28;20193;-64
2022/03/31 12:45:54;;;;;;;19.13;10.07;;;13.10;61.30;;;;;;5094528;28;20238;-64
2022/03/31 12:48:21;;;;;;;18.15;9.75;;;13.20;60.30;;;;;;5094716;28;20281;-63
2022/03/31 12:50:48;;;;;;;16.15;11.45;;;13.20;60.60;;;;;;5094434;28;20185;-63
2022/03/31 12:53:16;;;;;;;16.25;10.38;;;13.30;60.00;;;;;;5093748;28;20221;-64